sensor_id;sensor_type;location;lat;lon;timestamp;pressure;altitude;pressure_sealevel;temperature;humidity
6389;BME280;3227;42.654;23.360;2022-09-30T00:00:30;94125.22;;;16.59;100.00
6389;BME280;3227;42.654;23.360;2022-09-30T00:02:58;94120.72;;;16.65;100.00
6389;BME280;3227;42.654;23.360;2022-09-30T00:05:25;94119.03;;;16.64;100.00
6389;BME280;3227;42.654;23.360;2022-09-30T00:07:52;94132.69;;;16.69;100.00
6389;BME280;3227;42.654;23.360;2022-09-30T00:10:19;94139.47;;;16.73;100.00
6389;BME280;3227;42.654;23.360;2022-09-30T00:12:46;94140.22;;;16.77;100.00
6389;BME280;3227;42.654;23.360;2022-09-30T00:15:13;94149.56;;;16.81;100.00
6389;BME280;3227;42.654;23.360;2022-09-30T00:17:39;94142.66;;;16.82;100.00
6389;BME280;3227;42.654;23.360;2022-09-30T00:20:08;94122.16;;;16.76;100.00
6389;BME280;3227;42.654;23.360;2022-09-30T00:22:35;94116.84;;;16.51;100.00
6389;BME280;3227;42.654;23.360;2022-09-30T00:25:03;94092.63;;;16.24;100.00
6389;BME280;3227;42.654;23.360;2022-09-30T00:27:30;94133.13;;;16.54;100.00
6389;BME280;3227;42.654;23.360;2022-09-30T00:29:56;94146.94;;;16.53;100.00
6389;BME280;3227;42.654;23.360;2022-09-30T00:32:23;94160.22;;;16.41;100.00
6389;BME280;3227;42.654;23.360;2022-09-30T00:34:50;94149.91;;;16.40;100.00
6389;BME280;3227;42.654;23.360;2022-09-30T00:37:18;94149.53;;;16.53;100.00
6389;BME280;3227;42.654;23.360;2022-09-30T00:39:45;94140.88;;;16.54;100.00
6389;BME280;3227;42.654;23.360;2022-09-30T00:42:13;94138.19;;;16.57;100.00
6389;BME280;3227;42.654;23.360;2022-09-30T00:44:47;94139.00;;;16.61;100.00
6389;BME280;3227;42.654;23.360;2022-09-30T00:47:31;94129.50;;;16.61;100.00
6389;BME280;3227;42.654;23.360;2022-09-30T00:50:05;94135.53;;;16.60;100.00
6389;BME280;3227;42.654;23.360;2022-09-30T00:52:37;94095.22;;;16.53;100.00
6389;BME280;3227;42.654;23.360;2022-09-30T00:55:08;94131.69;;;16.44;100.00
6389;BME280;3227;42.654;23.360;2022-09-30T00:57:38;94131.81;;;16.40;100.00
6389;BME280;3227;42.654;23.360;2022-09-30T01:00:07;94098.53;;;16.29;100.00
6389;BME280;3227;42.654;23.360;2022-09-30T01:02:34;94135.84;;;16.19;100.00
6389;BME280;3227;42.654;23.360;2022-09-30T01:05:10;94129.06;;;16.15;100.00
6389;BME280;3227;42.654;23.360;2022-09-30T01:07:39;94116.03;;;16.19;100.00
6389;BME280;3227;42.654;23.360;2022-09-30T01:10:06;94139.88;;;16.29;100.00
6389;BME280;3227;42.654;23.360;2022-09-30T01:12:33;94130.16;;;16.37;100.00
6389;BME280;3227;42.654;23.360;2022-09-30T01:15:01;94110.28;;;16.39;100.00
6389;BME280;3227;42.654;23.360;2022-09-30T01:17:36;94121.19;;;16.49;100.00
6389;BME280;3227;42.654;23.360;2022-09-30T01:23:30;94133.13;;;16.54;100.00
6389;BME280;3227;42.654;23.360;2022-09-30T01:26:18;94126.78;;;16.35;100.00
6389;BME280;3227;42.654;23.360;2022-09-30T01:29:15;94128.34;;;16.41;100.00
6389;BME280;3227;42.654;23.360;2022-09-30T01:31:54;94134.25;;;16.46;100.00
6389;BME280;3227;42.654;23.360;2022-09-30T01:34:33;94129.06;;;16.46;100.00
6389;BME280;3227;42.654;23.360;2022-09-30T01:37:09;94138.63;;;16.42;100.00
6389;BME280;3227;42.654;23.360;2022-09-30T01:39:49;94132.56;;;16.43;100.00
6389;BME280;3227;42.654;23.360;2022-09-30T01:42:22;94129.09;;;16.44;100.00
6389;BME280;3227;42.654;23.360;2022-09-30T01:44:54;94136.91;;;16.43;100.00
6389;BME280;3227;42.654;23.360;2022-09-30T01:47:30;94134.31;;;16.43;100.00
6389;BME280;3227;42.654;23.360;2022-09-30T01:50:01;94134.31;;;16.43;100.00
6389;BME280;3227;42.654;23.360;2022-09-30T01:52:36;94130.88;;;16.42;100.00
6389;BME280;3227;42.654;23.360;2022-09-30T01:55:08;94136.91;;;16.43;100.00
6389;BME280;3227;42.654;23.360;2022-09-30T02:01:04;94130.13;;;16.39;100.00
6389;BME280;3227;42.654;23.360;2022-09-30T02:03:37;94131.88;;;16.38;100.00
6389;BME280;3227;42.654;23.360;2022-09-30T02:06:09;94133.81;;;16.30;100.00
6389;BME280;3227;42.654;23.360;2022-09-30T02:08:40;94084.00;;;15.94;100.00
6389;BME280;3227;42.654;23.360;2022-09-30T02:11:12;94132.41;;;16.18;100.00
6389;BME280;3227;42.654;23.360;2022-09-30T02:13:45;94138.44;;;16.19;100.00
6389;BME280;3227;42.654;23.360;2022-09-30T02:19:45;94143.16;;;16.05;100.00
6389;BME280;3227;42.654;23.360;2022-09-30T02:22:16;94147.44;;;16.06;100.00
6389;BME280;3227;42.654;23.360;2022-09-30T02:24:46;94143.91;;;16.08;100.00
6389;BME280;3227;42.654;23.360;2022-09-30T02:30:37;94144.16;;;15.99;100.00
6389;BME280;3227;42.654;23.360;2022-09-30T02:33:10;94157.03;;;16.01;100.00
6389;BME280;3227;42.654;23.360;2022-09-30T02:39:03;94153.81;;;15.92;100.00
6389;BME280;3227;42.654;23.360;2022-09-30T02:41:35;94155.56;;;15.90;100.00
6389;BME280;3227;42.654;23.360;2022-09-30T02:44:04;94151.34;;;15.88;100.00
6389;BME280;3227;42.654;23.360;2022-09-30T02:46:38;94146.25;;;15.85;100.00
6389;BME280;3227;42.654;23.360;2022-09-30T02:52:39;94116.72;;;15.63;100.00
6389;BME280;3227;42.654;23.360;2022-09-30T02:55:17;94141.31;;;15.76;100.00
6389;BME280;3227;42.654;23.360;2022-09-30T02:57:54;94148.44;;;15.68;100.00
6389;BME280;3227;42.654;23.360;2022-09-30T03:00:22;94151.94;;;15.65;100.00
6389;BME280;3227;42.654;23.360;2022-09-30T03:02:52;94154.50;;;15.65;100.00
6389;BME280;3227;42.654;23.360;2022-09-30T03:05:21;94086.78;;;15.20;100.00
6389;BME280;3227;42.654;23.360;2022-09-30T03:07:47;94170.00;;;15.65;100.00
6389;BME280;3227;42.654;23.360;2022-09-30T03:10:16;94125.06;;;15.38;100.00
6389;BME280;3227;42.654;23.360;2022-09-30T03:12:59;94176.81;;;15.69;100.00
6389;BME280;3227;42.654;23.360;2022-09-30T03:15:43;94112.34;;;15.31;100.00
6389;BME280;3227;42.654;23.360;2022-09-30T03:18:36;94169.03;;;15.71;100.00
6389;BME280;3227;42.654;23.360;2022-09-30T03:21:20;94150.34;;;15.59;100.00
6389;BME280;3227;42.654;23.360;2022-09-30T03:24:13;94176.75;;;15.72;100.00
6389;BME280;3227;42.654;23.360;2022-09-30T03:26:53;94172.50;;;15.70;100.00
6389;BME280;3227;42.654;23.360;2022-09-30T03:29:28;94168.28;;;15.66;100.00
6389;BME280;3227;42.654;23.360;2022-09-30T03:32:09;94179.41;;;15.68;100.00
6389;BME280;3227;42.654;23.360;2022-09-30T03:34:54;94163.81;;;15.72;100.00
6389;BME280;3227;42.654;23.360;2022-09-30T03:37:28;94169.88;;;15.71;100.00
6389;BME280;3227;42.654;23.360;2022-09-30T03:40:00;94173.19;;;15.76;100.00
6389;BME280;3227;42.654;23.360;2022-09-30T03:42:34;94176.56;;;15.78;100.00
6389;BME280;3227;42.654;23.360;2022-09-30T03:45:06;94173.09;;;15.79;100.00
6389;BME280;3227;42.654;23.360;2022-09-30T03:47:40;94172.09;;;15.85;100.00
6389;BME280;3227;42.654;23.360;2022-09-30T03:50:09;94180.56;;;15.90;100.00
6389;BME280;3227;42.654;23.360;2022-09-30T03:52:38;94184.00;;;15.90;100.00
6389;BME280;3227;42.654;23.360;2022-09-30T03:55:06;94179.81;;;15.86;100.00
6389;BME280;3227;42.654;23.360;2022-09-30T03:57:35;94178.09;;;15.85;100.00
6389;BME280;3227;42.654;23.360;2022-09-30T04:00:04;94192.66;;;15.89;100.00
6389;BME280;3227;42.654;23.360;2022-09-30T04:02:31;94195.31;;;15.86;100.00
6389;BME280;3227;42.654;23.360;2022-09-30T04:05:02;94197.94;;;15.85;100.00
6389;BME280;3227;42.654;23.360;2022-09-30T04:07:30;94193.84;;;15.76;100.00
6389;BME280;3227;42.654;23.360;2022-09-30T04:09:57;94198.91;;;15.81;100.00
6389;BME280;3227;42.654;23.360;2022-09-30T04:12:23;94201.44;;;15.82;100.00
6389;BME280;3227;42.654;23.360;2022-09-30T04:14:52;94193.63;;;15.85;100.00
6389;BME280;3227;42.654;23.360;2022-09-30T04:17:19;94195.31;;;15.86;100.00
6389;BME280;3227;42.654;23.360;2022-09-30T04:19:45;94197.16;;;15.81;100.00
6389;BME280;3227;42.654;23.360;2022-09-30T04:22:12;94191.97;;;15.81;100.00
6389;BME280;3227;42.654;23.360;2022-09-30T04:24:39;94187.81;;;15.76;100.00
6389;BME280;3227;42.654;23.360;2022-09-30T04:27:06;94189.53;;;15.77;100.00
6389;BME280;3227;42.654;23.360;2022-09-30T04:29:33;94179.06;;;15.81;100.00
6389;BME280;3227;42.654;23.360;2022-09-30T04:32:01;94190.34;;;15.79;100.00
6389;BME280;3227;42.654;23.360;2022-09-30T04:34:28;94209.94;;;15.87;100.00
6389;BME280;3227;42.654;23.360;2022-09-30T04:36:54;94206.66;;;15.81;100.00
6389;BME280;3227;42.654;23.360;2022-09-30T04:39:21;94207.81;;;15.69;100.00
6389;BME280;3227;42.654;23.360;2022-09-30T04:41:48;94211.22;;;15.70;100.00
6389;BME280;3227;42.654;23.360;2022-09-30T04:44:16;94206.16;;;15.65;100.00
6389;BME280;3227;42.654;23.360;2022-09-30T04:46:43;94217.41;;;15.64;100.00
6389;BME280;3227;42.654;23.360;2022-09-30T04:49:11;94220.06;;;15.61;100.00
6389;BME280;3227;42.654;23.360;2022-09-30T04:51:38;94224.44;;;15.57;100.00
6389;BME280;3227;42.654;23.360;2022-09-30T04:54:08;94237.44;;;15.53;100.00
6389;BME280;3227;42.654;23.360;2022-09-30T04:56:35;94243.44;;;15.55;100.00
6389;BME280;3227;42.654;23.360;2022-09-30T04:59:01;94194.13;;;15.29;100.00
6389;BME280;3227;42.654;23.360;2022-09-30T05:01:28;94201.88;;;15.29;100.00
6389;BME280;3227;42.654;23.360;2022-09-30T05:03:55;94259.47;;;15.69;100.00
6389;BME280;3227;42.654;23.360;2022-09-30T05:06:23;94250.72;;;15.73;100.00
6389;BME280;3227;42.654;23.360;2022-09-30T05:08:50;94254.78;;;15.83;100.00
6389;BME280;3227;42.654;23.360;2022-09-30T05:11:19;94181.44;;;15.56;100.00
6389;BME280;3227;42.654;23.360;2022-09-30T05:13:47;94241.81;;;15.86;100.00
6389;BME280;3227;42.654;23.360;2022-09-30T05:16:15;94246.00;;;15.90;100.00
6389;BME280;3227;42.654;23.360;2022-09-30T05:18:43;94225.31;;;15.92;100.00
6389;BME280;3227;42.654;23.360;2022-09-30T05:21:12;94253.25;;;15.76;100.00
6389;BME280;3227;42.654;23.360;2022-09-30T05:23:40;94273.03;;;15.77;100.00
6389;BME280;3227;42.654;23.360;2022-09-30T05:26:07;94261.38;;;15.61;100.00
6389;BME280;3227;42.654;23.360;2022-09-30T05:28:34;94274.25;;;15.63;100.00
6389;BME280;3227;42.654;23.360;2022-09-30T05:31:02;94234.25;;;15.42;100.00
6389;BME280;3227;42.654;23.360;2022-09-30T05:33:31;94260.94;;;15.79;100.00
6389;BME280;3227;42.654;23.360;2022-09-30T05:36:11;94264.06;;;15.92;100.00
6389;BME280;3227;42.654;23.360;2022-09-30T05:38:40;94228.63;;;15.63;100.00
6389;BME280;3227;42.654;23.360;2022-09-30T05:41:08;94280.19;;;16.02;100.00
6389;BME280;3227;42.654;23.360;2022-09-30T05:43:36;94283.31;;;16.14;100.00
6389;BME280;3227;42.654;23.360;2022-09-30T05:46:04;94236.31;;;15.98;100.00
6389;BME280;3227;42.654;23.360;2022-09-30T05:48:30;94298.72;;;16.19;100.00
6389;BME280;3227;42.654;23.360;2022-09-30T05:50:57;94250.44;;;15.85;100.00
6389;BME280;3227;42.654;23.360;2022-09-30T05:53:26;94281.97;;;15.98;100.00
6389;BME280;3227;42.654;23.360;2022-09-30T05:55:54;94299.81;;;16.09;100.00
6389;BME280;3227;42.654;23.360;2022-09-30T05:58:31;94299.81;;;16.09;100.00
6389;BME280;3227;42.654;23.360;2022-09-30T06:01:02;94249.06;;;15.72;100.00
6389;BME280;3227;42.654;23.360;2022-09-30T06:03:31;94307.41;;;16.15;100.00
6389;BME280;3227;42.654;23.360;2022-09-30T06:05:57;94305.75;;;16.14;100.00
6389;BME280;3227;42.654;23.360;2022-09-30T06:08:24;94306.50;;;16.17;100.00
6389;BME280;3227;42.654;23.360;2022-09-30T06:10:51;94250.38;;;15.88;100.00
6389;BME280;3227;42.654;23.360;2022-09-30T06:13:19;94312.50;;;16.52;100.00
6389;BME280;3227;42.654;23.360;2022-09-30T06:15:54;94306.25;;;16.62;100.00
6389;BME280;3227;42.654;23.360;2022-09-30T06:18:22;94307.03;;;16.64;100.00
6389;BME280;3227;42.654;23.360;2022-09-30T06:20:48;94311.88;;;16.76;100.00
6389;BME280;3227;42.654;23.360;2022-09-30T06:23:15;94321.72;;;16.63;100.00
6389;BME280;3227;42.654;23.360;2022-09-30T06:25:42;94320.81;;;16.64;100.00
6389;BME280;3227;42.654;23.360;2022-09-30T06:28:10;94309.72;;;16.59;100.00
6389;BME280;3227;42.654;23.360;2022-09-30T06:30:38;94309.72;;;16.61;100.00
6389;BME280;3227;42.654;23.360;2022-09-30T06:33:05;94329.84;;;16.81;100.00
6389;BME280;3227;42.654;23.360;2022-09-30T06:35:44;94318.78;;;16.76;100.00
6389;BME280;3227;42.654;23.360;2022-09-30T06:38:12;94293.22;;;16.31;100.00
6389;BME280;3227;42.654;23.360;2022-09-30T06:40:40;94266.84;;;16.18;100.00
6389;BME280;3227;42.654;23.360;2022-09-30T06:43:07;94320.75;;;16.67;100.00
6389;BME280;3227;42.654;23.360;2022-09-30T06:45:36;94275.13;;;16.31;100.00
6389;BME280;3227;42.654;23.360;2022-09-30T06:48:05;94343.59;;;16.83;100.00
6389;BME280;3227;42.654;23.360;2022-09-30T06:50:33;94343.06;;;17.02;100.00
6389;BME280;3227;42.654;23.360;2022-09-30T06:53:00;94345.66;;;17.02;100.00
6389;BME280;3227;42.654;23.360;2022-09-30T06:55:28;94328.66;;;16.94;100.00
6389;BME280;3227;42.654;23.360;2022-09-30T06:57:56;94307.94;;;17.23;100.00
6389;BME280;3227;42.654;23.360;2022-09-30T07:00:23;94356.03;;;17.91;100.00
6389;BME280;3227;42.654;23.360;2022-09-30T07:02:52;94311.63;;;17.73;100.00
6389;BME280;3227;42.654;23.360;2022-09-30T07:05:21;94376.75;;;18.45;100.00
6389;BME280;3227;42.654;23.360;2022-09-30T07:07:50;94366.19;;;18.77;100.00
6389;BME280;3227;42.654;23.360;2022-09-30T07:10:17;94369.47;;;18.82;100.00
6389;BME280;3227;42.654;23.360;2022-09-30T07:12:48;94369.47;;;19.07;100.00
6389;BME280;3227;42.654;23.360;2022-09-30T07:15:15;94376.91;;;19.41;100.00
6389;BME280;3227;42.654;23.360;2022-09-30T07:17:42;94380.94;;;19.50;99.64
6389;BME280;3227;42.654;23.360;2022-09-30T07:20:09;94392.63;;;19.61;99.05
6389;BME280;3227;42.654;23.360;2022-09-30T07:22:37;94376.38;;;19.56;95.96
6389;BME280;3227;42.654;23.360;2022-09-30T07:25:04;94390.75;;;19.42;97.70
6389;BME280;3227;42.654;23.360;2022-09-30T07:27:32;94392.81;;;19.32;97.87
6389;BME280;3227;42.654;23.360;2022-09-30T07:29:59;94391.28;;;19.26;97.67
6389;BME280;3227;42.654;23.360;2022-09-30T07:32:26;94411.06;;;19.30;97.39
6389;BME280;3227;42.654;23.360;2022-09-30T07:34:53;94415.56;;;19.25;97.10
6389;BME280;3227;42.654;23.360;2022-09-30T07:37:20;94421.31;;;19.35;96.91
6389;BME280;3227;42.654;23.360;2022-09-30T07:39:48;94408.44;;;19.55;97.51
6389;BME280;3227;42.654;23.360;2022-09-30T07:42:16;94399.75;;;19.80;98.04
6389;BME280;3227;42.654;23.360;2022-09-30T07:44:46;94391.50;;;19.92;96.70
6389;BME280;3227;42.654;23.360;2022-09-30T07:47:14;94402.09;;;20.09;95.37
6389;BME280;3227;42.654;23.360;2022-09-30T07:49:42;94399.75;;;20.25;95.19
6389;BME280;3227;42.654;23.360;2022-09-30T07:52:09;94398.75;;;20.27;92.38
6389;BME280;3227;42.654;23.360;2022-09-30T07:54:37;94383.03;;;20.30;92.48
6389;BME280;3227;42.654;23.360;2022-09-30T07:57:06;94388.66;;;20.20;91.33
6389;BME280;3227;42.654;23.360;2022-09-30T07:59:35;94400.50;;;20.27;91.74
6389;BME280;3227;42.654;23.360;2022-09-30T08:02:04;94404.81;;;20.06;91.97
6389;BME280;3227;42.654;23.360;2022-09-30T08:04:31;94413.69;;;20.00;91.09
6389;BME280;3227;42.654;23.360;2022-09-30T08:06:59;94421.56;;;19.99;89.99
6389;BME280;3227;42.654;23.360;2022-09-30T08:09:28;94393.53;;;19.84;89.75
6389;BME280;3227;42.654;23.360;2022-09-30T08:11:55;94429.47;;;19.96;89.35
6389;BME280;3227;42.654;23.360;2022-09-30T08:14:25;94429.34;;;19.99;88.44
6389;BME280;3227;42.654;23.360;2022-09-30T08:16:52;94419.75;;;20.01;89.06
6389;BME280;3227;42.654;23.360;2022-09-30T08:19:21;94386.75;;;19.80;91.15
6389;BME280;3227;42.654;23.360;2022-09-30T08:21:49;94433.88;;;20.17;88.07
6389;BME280;3227;42.654;23.360;2022-09-30T08:24:17;94428.28;;;20.26;90.80
6389;BME280;3227;42.654;23.360;2022-09-30T08:26:44;94435.84;;;20.34;87.67
6389;BME280;3227;42.654;23.360;2022-09-30T08:29:11;94407.91;;;20.16;87.58
6389;BME280;3227;42.654;23.360;2022-09-30T08:31:40;94390.47;;;20.18;88.26
6389;BME280;3227;42.654;23.360;2022-09-30T08:34:07;94397.97;;;20.25;86.42
6389;BME280;3227;42.654;23.360;2022-09-30T08:36:34;94441.50;;;20.43;87.19
6389;BME280;3227;42.654;23.360;2022-09-30T08:39:02;94448.94;;;20.52;87.59
6389;BME280;3227;42.654;23.360;2022-09-30T08:41:50;94438.22;;;20.60;85.75
6389;BME280;3227;42.654;23.360;2022-09-30T08:44:35;94446.66;;;20.67;86.08
6389;BME280;3227;42.654;23.360;2022-09-30T08:50:01;94425.47;;;20.54;84.35
6389;BME280;3227;42.654;23.360;2022-09-30T08:52:33;94449.00;;;20.73;86.69
6389;BME280;3227;42.654;23.360;2022-09-30T08:55:01;94455.19;;;20.70;85.09
6389;BME280;3227;42.654;23.360;2022-09-30T08:57:33;94444.66;;;20.51;84.43
6389;BME280;3227;42.654;23.360;2022-09-30T09:00:04;94455.56;;;20.61;85.48
6389;BME280;3227;42.654;23.360;2022-09-30T09:02:41;94459.53;;;20.70;85.08
6389;BME280;3227;42.654;23.360;2022-09-30T09:05:17;94457.31;;;20.82;85.60
6389;BME280;3227;42.654;23.360;2022-09-30T09:07:50;94457.69;;;20.73;85.84
6389;BME280;3227;42.654;23.360;2022-09-30T09:10:29;94428.59;;;20.42;86.34
6389;BME280;3227;42.654;23.360;2022-09-30T09:13:06;94472.81;;;20.64;87.98
6389;BME280;3227;42.654;23.360;2022-09-30T09:15:45;94453.19;;;20.55;88.53
6389;BME280;3227;42.654;23.360;2022-09-30T09:21:13;94461.09;;;20.30;87.64
6389;BME280;3227;42.654;23.360;2022-09-30T09:23:44;94468.69;;;20.36;88.11
6389;BME280;3227;42.654;23.360;2022-09-30T09:26:14;94466.56;;;20.46;86.59
6389;BME280;3227;42.654;23.360;2022-09-30T09:28:45;94467.88;;;20.34;86.03
6389;BME280;3227;42.654;23.360;2022-09-30T09:31:18;94473.94;;;20.35;87.37
6389;BME280;3227;42.654;23.360;2022-09-30T09:33:47;94464.69;;;20.26;87.51
6389;BME280;3227;42.654;23.360;2022-09-30T09:36:25;94461.34;;;20.24;87.76
6389;BME280;3227;42.654;23.360;2022-09-30T09:39:19;94477.56;;;20.31;87.81
6389;BME280;3227;42.654;23.360;2022-09-30T09:41:53;94468.09;;;20.28;87.24
6389;BME280;3227;42.654;23.360;2022-09-30T09:44:27;94463.22;;;20.42;85.32
6389;BME280;3227;42.654;23.360;2022-09-30T09:47:03;94477.84;;;20.46;84.10
6389;BME280;3227;42.654;23.360;2022-09-30T09:49:33;94451.00;;;20.44;84.05
6389;BME280;3227;42.654;23.360;2022-09-30T09:52:39;94463.00;;;20.70;84.49
6389;BME280;3227;42.654;23.360;2022-09-30T09:55:11;94458.69;;;20.91;84.61
6389;BME280;3227;42.654;23.360;2022-09-30T09:57:38;94455.56;;;21.03;84.09
6389;BME280;3227;42.654;23.360;2022-09-30T10:00:07;94462.34;;;21.07;78.37
6389;BME280;3227;42.654;23.360;2022-09-30T10:02:59;94473.41;;;21.12;77.21
6389;BME280;3227;42.654;23.360;2022-09-30T10:05:35;94483.63;;;21.18;76.90
6389;BME280;3227;42.654;23.360;2022-09-30T10:08:16;94465.78;;;21.30;77.09
6389;BME280;3227;42.654;23.360;2022-09-30T10:10:47;94481.59;;;21.45;75.09
6389;BME280;3227;42.654;23.360;2022-09-30T10:13:19;94457.50;;;21.40;75.19
6389;BME280;3227;42.654;23.360;2022-09-30T10:15:46;94471.88;;;21.69;74.21
6389;BME280;3227;42.654;23.360;2022-09-30T10:18:20;94462.00;;;21.76;73.90
6389;BME280;3227;42.654;23.360;2022-09-30T10:20:52;94469.50;;;21.83;70.91
6389;BME280;3227;42.654;23.360;2022-09-30T10:23:24;94437.34;;;21.64;72.51
6389;BME280;3227;42.654;23.360;2022-09-30T10:26:00;94447.72;;;21.84;72.67
6389;BME280;3227;42.654;23.360;2022-09-30T10:28:31;94437.78;;;21.92;72.29
6389;BME280;3227;42.654;23.360;2022-09-30T10:31:04;94453.06;;;22.20;71.47
6389;BME280;3227;42.654;23.360;2022-09-30T10:33:35;94450.88;;;22.30;67.92
6389;BME280;3227;42.654;23.360;2022-09-30T10:36:12;94445.22;;;22.39;68.53
6389;BME280;3227;42.654;23.360;2022-09-30T10:38:48;94449.66;;;22.56;68.37
6389;BME280;3227;42.654;23.360;2022-09-30T10:41:21;94431.66;;;22.50;68.90
6389;BME280;3227;42.654;23.360;2022-09-30T10:43:51;94451.97;;;22.62;68.56
6389;BME280;3227;42.654;23.360;2022-09-30T10:46:23;94453.78;;;22.60;67.82
6389;BME280;3227;42.654;23.360;2022-09-30T10:48:52;94446.19;;;22.55;67.58
6389;BME280;3227;42.654;23.360;2022-09-30T10:51:29;94383.28;;;22.24;67.32
6389;BME280;3227;42.654;23.360;2022-09-30T10:53:58;94455.50;;;22.80;63.02
6389;BME280;3227;42.654;23.360;2022-09-30T10:56:37;94406.00;;;22.58;61.74
6389;BME280;3227;42.654;23.360;2022-09-30T10:59:22;94454.09;;;22.90;61.96
6389;BME280;3227;42.654;23.360;2022-09-30T11:01:56;94462.13;;;23.04;62.07
6389;BME280;3227;42.654;23.360;2022-09-30T11:04:28;94466.91;;;23.13;61.68
6389;BME280;3227;42.654;23.360;2022-09-30T11:07:10;94461.69;;;23.30;62.38
6389;BME280;3227;42.654;23.360;2022-09-30T11:09:46;94464.75;;;23.38;60.38
6389;BME280;3227;42.654;23.360;2022-09-30T11:12:18;94425.38;;;23.24;60.83
6389;BME280;3227;42.654;23.360;2022-09-30T11:14:52;94455.66;;;23.45;58.06
6389;BME280;3227;42.654;23.360;2022-09-30T11:17:31;94456.38;;;23.49;58.47
6389;BME280;3227;42.654;23.360;2022-09-30T11:20:10;94452.38;;;23.59;57.94
6389;BME280;3227;42.654;23.360;2022-09-30T11:22:44;94461.38;;;23.71;54.10
6389;BME280;3227;42.654;23.360;2022-09-30T11:25:13;94458.56;;;23.74;53.32
6389;BME280;3227;42.654;23.360;2022-09-30T11:27:57;94457.03;;;23.87;52.79
6389;BME280;3227;42.654;23.360;2022-09-30T11:30:32;94457.75;;;23.89;52.71
6389;BME280;3227;42.654;23.360;2022-09-30T11:33:31;94463.44;;;23.97;52.99
6389;BME280;3227;42.654;23.360;2022-09-30T11:36:06;94420.69;;;23.81;52.30
6389;BME280;3227;42.654;23.360;2022-09-30T11:38:52;94466.19;;;24.11;51.80
6389;BME280;3227;42.654;23.360;2022-09-30T11:41:26;94462.53;;;24.14;51.51
6389;BME280;3227;42.654;23.360;2022-09-30T11:43:59;94461.91;;;24.26;50.63
6389;BME280;3227;42.654;23.360;2022-09-30T11:46:55;94469.03;;;24.40;49.26
6389;BME280;3227;42.654;23.360;2022-09-30T11:49:38;94462.34;;;24.50;48.29
6389;BME280;3227;42.654;23.360;2022-09-30T11:52:14;94458.22;;;24.46;48.23
6389;BME280;3227;42.654;23.360;2022-09-30T11:55:02;94439.97;;;24.44;48.39
6389;BME280;3227;42.654;23.360;2022-09-30T11:57:36;94462.19;;;24.53;46.87
6389;BME280;3227;42.654;23.360;2022-09-30T12:00:13;94460.41;;;24.53;46.07
6389;BME280;3227;42.654;23.360;2022-09-30T12:02:43;94459.66;;;24.51;46.44
6389;BME280;3227;42.654;23.360;2022-09-30T12:05:17;94458.22;;;24.46;46.07
6389;BME280;3227;42.654;23.360;2022-09-30T12:07:49;94462.69;;;24.44;46.23
6389;BME280;3227;42.654;23.360;2022-09-30T12:10:22;94466.41;;;24.40;45.91
6389;BME280;3227;42.654;23.360;2022-09-30T12:12:55;94469.19;;;24.37;44.69
6389;BME280;3227;42.654;23.360;2022-09-30T12:15:25;94464.91;;;24.36;44.77
6389;BME280;3227;42.654;23.360;2022-09-30T12:17:56;94465.25;;;24.45;44.61
6389;BME280;3227;42.654;23.360;2022-09-30T12:20:27;94470.22;;;24.65;44.61
6389;BME280;3227;42.654;23.360;2022-09-30T12:22:59;94463.53;;;24.91;44.74
6389;BME280;3227;42.654;23.360;2022-09-30T12:25:31;94464.75;;;25.16;44.84
6389;BME280;3227;42.654;23.360;2022-09-30T12:28:04;94428.41;;;25.10;45.05
6389;BME280;3227;42.654;23.360;2022-09-30T12:30:48;94410.84;;;25.26;44.94
6389;BME280;3227;42.654;23.360;2022-09-30T12:33:28;94460.50;;;25.73;43.77
6389;BME280;3227;42.654;23.360;2022-09-30T12:36:25;94472.63;;;25.90;43.29
6389;BME280;3227;42.654;23.360;2022-09-30T12:39:26;94473.09;;;25.96;43.25
6389;BME280;3227;42.654;23.360;2022-09-30T12:42:27;94464.94;;;26.01;41.95
6389;BME280;3227;42.654;23.360;2022-09-30T12:45:11;94461.94;;;25.93;42.09
6389;BME280;3227;42.654;23.360;2022-09-30T12:47:56;94461.19;;;25.76;41.83
6389;BME280;3227;42.654;23.360;2022-09-30T12:50:26;94459.66;;;25.72;42.89
6389;BME280;3227;42.654;23.360;2022-09-30T12:52:54;94468.38;;;25.73;42.68
6389;BME280;3227;42.654;23.360;2022-09-30T12:55:27;94468.69;;;25.68;42.78
6389;BME280;3227;42.654;23.360;2022-09-30T12:57:57;94447.44;;;25.57;42.71
6389;BME280;3227;42.654;23.360;2022-09-30T13:00:28;94471.84;;;25.73;43.37
6389;BME280;3227;42.654;23.360;2022-09-30T13:03:04;94469.53;;;25.69;42.94
6389;BME280;3227;42.654;23.360;2022-09-30T13:05:53;94471.31;;;25.68;42.91
6389;BME280;3227;42.654;23.360;2022-09-30T13:08:44;94470.16;;;25.72;42.51
6389;BME280;3227;42.654;23.360;2022-09-30T13:11:34;94430.47;;;25.49;41.95
6389;BME280;3227;42.654;23.360;2022-09-30T13:14:14;94471.78;;;25.75;42.02
6389;BME280;3227;42.654;23.360;2022-09-30T13:16:59;94465.69;;;25.74;42.68
6389;BME280;3227;42.654;23.360;2022-09-30T13:19:34;94460.34;;;25.76;41.85
6389;BME280;3227;42.654;23.360;2022-09-30T13:25:18;94468.84;;;25.80;41.29
6389;BME280;3227;42.654;23.360;2022-09-30T13:27:46;94469.72;;;25.80;40.50
6389;BME280;3227;42.654;23.360;2022-09-30T13:30:47;94477.03;;;25.75;41.02
6389;BME280;3227;42.654;23.360;2022-09-30T13:33:40;94475.78;;;25.66;41.02
6389;BME280;3227;42.654;23.360;2022-09-30T13:36:26;94446.03;;;25.52;41.18
6389;BME280;3227;42.654;23.360;2022-09-30T13:39:16;94439.56;;;25.43;40.97
6389;BME280;3227;42.654;23.360;2022-09-30T13:41:49;94484.03;;;25.60;41.18
6389;BME280;3227;42.654;23.360;2022-09-30T13:44:25;94479.50;;;25.62;41.17
6389;BME280;3227;42.654;23.360;2022-09-30T13:47:07;94482.25;;;25.61;40.47
6389;BME280;3227;42.654;23.360;2022-09-30T13:49:40;94485.69;;;25.61;40.72
6389;BME280;3227;42.654;23.360;2022-09-30T13:52:17;94478.88;;;25.59;41.14
6389;BME280;3227;42.654;23.360;2022-09-30T13:54:46;94482.34;;;25.59;41.34
6389;BME280;3227;42.654;23.360;2022-09-30T13:57:18;94477.94;;;25.60;41.17
6389;BME280;3227;42.654;23.360;2022-09-30T14:00:03;94477.16;;;25.58;41.15
6389;BME280;3227;42.654;23.360;2022-09-30T14:03:05;94486.03;;;25.55;40.86